DAL2186 KSEA-PAFA
Flight info
| Callsign | DAL2186 |
|---|---|
| Flight time | N/A |
| Altitude | 40000 |
| Route | BANGR9 ARRIE YJQ DOOZI SSR AYZOL ORT RDFLG HRDNG4 |
| Aircraft | A359/H-SDE2E3GHIJ3J4J5LM1ORWXY/LB1D1 |
Departure
| Time | N/A |
|---|---|
| Airport | Seattle–Tacoma International Airport (KSEA) |
Arrival
| Time | 2026-04-15 15:03 |
|---|---|
| Airport | Fairbanks International Airport (PAFA) |
| Time | Latitude | Longitude | Altitude | Speed | Heading |
|---|---|---|---|---|---|
| 2026-04-15 13:07 | 54.72527 | -131.02252 | 39926 ft | 468 kts | 325° |
| 2026-04-15 13:07 | 54.75156 | -131.05499 | 39928 ft | 467 kts | 325° |
| 2026-04-15 13:07 | 54.80466 | -131.12071 | 39930 ft | 467 kts | 325° |
| 2026-04-15 13:08 | 54.85752 | -131.18636 | 39929 ft | 467 kts | 325° |
| 2026-04-15 13:08 | 54.91002 | -131.25177 | 39930 ft | 467 kts | 325° |
| 2026-04-15 13:09 | 54.96277 | -131.31771 | 39935 ft | 466 kts | 325° |
| 2026-04-15 13:09 | 55.01546 | -131.38380 | 39940 ft | 466 kts | 325° |
| 2026-04-15 13:10 | 55.06802 | -131.44994 | 39941 ft | 466 kts | 325° |
| 2026-04-15 13:10 | 55.12067 | -131.51642 | 39938 ft | 466 kts | 325° |
| 2026-04-15 13:11 | 55.17286 | -131.58253 | 39934 ft | 466 kts | 325° |
| 2026-04-15 13:11 | 55.22528 | -131.64915 | 39934 ft | 466 kts | 325° |
| 2026-04-15 13:12 | 55.27771 | -131.71601 | 39935 ft | 465 kts | 325° |
| 2026-04-15 13:12 | 55.33003 | -131.78294 | 39937 ft | 465 kts | 325° |
| 2026-04-15 13:13 | 55.38236 | -131.85013 | 39933 ft | 465 kts | 325° |
| 2026-04-15 13:13 | 55.43462 | -131.91744 | 39934 ft | 465 kts | 324° |
| 2026-04-15 13:14 | 55.48650 | -131.98449 | 39936 ft | 465 kts | 324° |
| 2026-04-15 13:14 | 55.53858 | -132.05202 | 39938 ft | 464 kts | 324° |
| 2026-04-15 13:15 | 55.59063 | -132.11975 | 39939 ft | 464 kts | 324° |
| 2026-04-15 13:15 | 55.64259 | -132.18749 | 39940 ft | 464 kts | 325° |
| 2026-04-15 13:16 | 55.69651 | -132.24993 | 39945 ft | 463 kts | 329° |
| 2026-04-15 13:16 | 55.74226 | -132.29927 | 39943 ft | 463 kts | 329° |
| 2026-04-15 13:17 | 55.79704 | -132.35923 | 39944 ft | 462 kts | 328° |
| 2026-04-15 13:17 | 55.85154 | -132.42033 | 39944 ft | 462 kts | 328° |
| 2026-04-15 13:18 | 55.90587 | -132.48193 | 39944 ft | 462 kts | 328° |
| 2026-04-15 13:18 | 55.96008 | -132.54364 | 39944 ft | 462 kts | 328° |
| 2026-04-15 13:19 | 56.01389 | -132.60505 | 39945 ft | 461 kts | 328° |
| 2026-04-15 13:19 | 56.06805 | -132.66704 | 39942 ft | 461 kts | 328° |
| 2026-04-15 13:20 | 56.12215 | -132.72916 | 39942 ft | 461 kts | 328° |
| 2026-04-15 13:20 | 56.17616 | -132.79138 | 39942 ft | 461 kts | 328° |
| 2026-04-15 13:21 | 56.22976 | -132.85334 | 39942 ft | 461 kts | 328° |
| 2026-04-15 13:21 | 56.28369 | -132.91591 | 39942 ft | 461 kts | 328° |
| 2026-04-15 13:22 | 56.33760 | -132.97865 | 39945 ft | 461 kts | 328° |
| 2026-04-15 13:22 | 56.39148 | -133.04158 | 39948 ft | 461 kts | 328° |
| 2026-04-15 13:23 | 56.44530 | -133.10466 | 39947 ft | 461 kts | 327° |
| 2026-04-15 13:23 | 56.49901 | -133.16783 | 39946 ft | 460 kts | 327° |
| 2026-04-15 13:24 | 56.55272 | -133.23120 | 39953 ft | 460 kts | 327° |
| 2026-04-15 13:24 | 56.60593 | -133.29420 | 39952 ft | 460 kts | 327° |
| 2026-04-15 13:25 | 56.65952 | -133.35787 | 39949 ft | 460 kts | 327° |
| 2026-04-15 13:25 | 56.71302 | -133.42166 | 39951 ft | 460 kts | 327° |
| 2026-04-15 13:26 | 56.76645 | -133.48558 | 39951 ft | 460 kts | 327° |
| 2026-04-15 13:26 | 56.81990 | -133.54975 | 39952 ft | 459 kts | 327° |
| 2026-04-15 13:27 | 56.87320 | -133.61398 | 39955 ft | 459 kts | 327° |
| 2026-04-15 13:27 | 56.92543 | -133.67711 | 39958 ft | 459 kts | 327° |
| 2026-04-15 13:28 | 56.97864 | -133.74165 | 39962 ft | 459 kts | 327° |
| 2026-04-15 13:28 | 57.03181 | -133.80637 | 39962 ft | 458 kts | 327° |
| 2026-04-15 13:29 | 57.08497 | -133.87130 | 39961 ft | 458 kts | 327° |
| 2026-04-15 13:29 | 57.13802 | -133.93633 | 39957 ft | 458 kts | 327° |
| 2026-04-15 13:30 | 57.19107 | -134.00159 | 39958 ft | 458 kts | 327° |
| 2026-04-15 13:30 | 57.24365 | -134.06649 | 39955 ft | 458 kts | 326° |
| 2026-04-15 13:31 | 57.29665 | -134.13214 | 39956 ft | 458 kts | 326° |
| 2026-04-15 13:31 | 57.34951 | -134.19785 | 39957 ft | 457 kts | 326° |
| 2026-04-15 13:32 | 57.40238 | -134.26380 | 39959 ft | 457 kts | 326° |
| 2026-04-15 13:32 | 57.45515 | -134.32986 | 39962 ft | 457 kts | 326° |
| 2026-04-15 13:33 | 57.50752 | -134.39566 | 39966 ft | 457 kts | 326° |
| 2026-04-15 13:33 | 57.56020 | -134.46210 | 39966 ft | 457 kts | 326° |
| 2026-04-15 13:34 | 57.61289 | -134.52875 | 39966 ft | 457 kts | 326° |
| 2026-04-15 13:34 | 57.66549 | -134.59554 | 39965 ft | 457 kts | 326° |
| 2026-04-15 13:35 | 57.71806 | -134.66253 | 39969 ft | 457 kts | 326° |
| 2026-04-15 13:35 | 57.77058 | -134.72970 | 39969 ft | 457 kts | 326° |
| 2026-04-15 13:36 | 57.82305 | -134.79704 | 39972 ft | 457 kts | 326° |
| 2026-04-15 13:36 | 57.87553 | -134.86464 | 39968 ft | 457 kts | 326° |
| 2026-04-15 13:37 | 57.92802 | -134.93250 | 39968 ft | 457 kts | 326° |
| 2026-04-15 13:37 | 57.98006 | -135.00002 | 39971 ft | 457 kts | 325° |
| 2026-04-15 13:38 | 58.03245 | -135.06823 | 39968 ft | 457 kts | 325° |
| 2026-04-15 13:38 | 58.08479 | -135.13664 | 39971 ft | 457 kts | 325° |
| 2026-04-15 13:39 | 58.13709 | -135.20524 | 39972 ft | 457 kts | 325° |
| 2026-04-15 13:39 | 58.18929 | -135.27382 | 39971 ft | 457 kts | 326° |
| 2026-04-15 13:40 | 58.24332 | -135.33735 | 39975 ft | 457 kts | 329° |
| 2026-04-15 13:40 | 58.29827 | -135.39824 | 39975 ft | 457 kts | 329° |
| 2026-04-15 13:41 | 58.35264 | -135.45961 | 39979 ft | 457 kts | 328° |
| 2026-04-15 13:41 | 58.40710 | -135.52233 | 39981 ft | 457 kts | 328° |
| 2026-04-15 13:42 | 58.46144 | -135.58551 | 39979 ft | 457 kts | 328° |
| 2026-04-15 13:42 | 58.51574 | -135.64885 | 39981 ft | 457 kts | 328° |
| 2026-04-15 13:43 | 58.57000 | -135.71232 | 39978 ft | 457 kts | 328° |
| 2026-04-15 13:43 | 58.62424 | -135.77598 | 39976 ft | 457 kts | 328° |
| 2026-04-15 13:44 | 58.67846 | -135.83984 | 39971 ft | 457 kts | 328° |
| 2026-04-15 13:44 | 58.73243 | -135.90367 | 39969 ft | 457 kts | 328° |
| 2026-04-15 13:45 | 58.78661 | -135.96798 | 39967 ft | 458 kts | 328° |
| 2026-04-15 13:47 | 59.00310 | -136.22732 | 39973 ft | 457 kts | 327° |
| 2026-04-15 13:47 | 59.05711 | -136.29262 | 39976 ft | 457 kts | 327° |
| 2026-04-15 13:48 | 59.11112 | -136.35818 | 39979 ft | 457 kts | 327° |
| 2026-04-15 13:48 | 59.16475 | -136.42354 | 39984 ft | 458 kts | 327° |
| 2026-04-15 13:49 | 59.21880 | -136.48962 | 39994 ft | 458 kts | 327° |
| 2026-04-15 13:49 | 59.27281 | -136.55591 | 39990 ft | 458 kts | 327° |
| 2026-04-15 13:50 | 59.32675 | -136.62240 | 39995 ft | 458 kts | 327° |
| 2026-04-15 13:50 | 59.38071 | -136.68914 | 40000 ft | 458 kts | 327° |
| 2026-04-15 13:51 | 59.43471 | -136.75618 | 40003 ft | 459 kts | 327° |
| 2026-04-15 13:51 | 59.48860 | -136.82335 | 40004 ft | 459 kts | 327° |
| 2026-04-15 13:52 | 59.54215 | -136.89034 | 40010 ft | 458 kts | 327° |
| 2026-04-15 13:52 | 59.59594 | -136.95789 | 40009 ft | 458 kts | 326° |
| 2026-04-15 13:53 | 59.64975 | -137.02575 | 40010 ft | 458 kts | 326° |
| 2026-04-15 13:53 | 59.70344 | -137.09370 | 40011 ft | 458 kts | 326° |
| 2026-04-15 13:54 | 59.75725 | -137.16208 | 40016 ft | 459 kts | 326° |
| 2026-04-15 13:54 | 59.81095 | -137.23056 | 40017 ft | 459 kts | 326° |
| 2026-04-15 13:55 | 59.86466 | -137.29934 | 40013 ft | 459 kts | 326° |
| 2026-04-15 13:55 | 59.91793 | -137.36782 | 40020 ft | 459 kts | 326° |
| 2026-04-15 13:56 | 59.97155 | -137.43702 | 40018 ft | 459 kts | 326° |
| 2026-04-15 13:56 | 60.02514 | -137.50644 | 40018 ft | 459 kts | 326° |
| 2026-04-15 13:57 | 60.07874 | -137.57616 | 40019 ft | 459 kts | 326° |
| 2026-04-15 13:57 | 60.13231 | -137.64612 | 40024 ft | 459 kts | 326° |
| 2026-04-15 13:58 | 60.18585 | -137.71631 | 40017 ft | 459 kts | 326° |
| 2026-04-15 13:58 | 60.23938 | -137.78675 | 40019 ft | 460 kts | 325° |
| 2026-04-15 13:59 | 60.29284 | -137.85739 | 40016 ft | 460 kts | 325° |
| 2026-04-15 13:59 | 60.34634 | -137.92837 | 40018 ft | 460 kts | 325° |
| 2026-04-15 14:00 | 60.39949 | -137.99916 | 40012 ft | 460 kts | 325° |
| 2026-04-15 14:00 | 60.45291 | -138.07059 | 40015 ft | 460 kts | 325° |
| 2026-04-15 14:01 | 60.53298 | -138.17820 | 40006 ft | 460 kts | 325° |
| 2026-04-15 14:02 | 60.58634 | -138.25029 | 40004 ft | 461 kts | 325° |
| 2026-04-15 14:02 | 60.63973 | -138.32271 | 40001 ft | 461 kts | 325° |
| 2026-04-15 14:03 | 60.69302 | -138.39526 | 40000 ft | 461 kts | 325° |
| 2026-04-15 14:03 | 60.74633 | -138.46815 | 39996 ft | 461 kts | 325° |
| 2026-04-15 14:04 | 60.79959 | -138.54126 | 39987 ft | 461 kts | 324° |
| 2026-04-15 14:04 | 60.85259 | -138.61431 | 39981 ft | 461 kts | 324° |
| 2026-04-15 14:05 | 60.90590 | -138.68810 | 39980 ft | 462 kts | 324° |
| 2026-04-15 14:05 | 60.95018 | -138.74962 | 39978 ft | 462 kts | 324° |
| 2026-04-15 14:06 | 61.00348 | -138.82393 | 39975 ft | 462 kts | 324° |
| 2026-04-15 14:06 | 61.05664 | -138.89838 | 39962 ft | 462 kts | 324° |
| 2026-04-15 14:07 | 61.10979 | -138.97311 | 39941 ft | 462 kts | 324° |
| 2026-04-15 14:07 | 61.16295 | -139.04816 | 39921 ft | 462 kts | 324° |
| 2026-04-15 14:08 | 61.21609 | -139.12349 | 39908 ft | 463 kts | 324° |
| 2026-04-15 14:08 | 61.26917 | -139.19907 | 39899 ft | 463 kts | 324° |
| 2026-04-15 14:09 | 61.32225 | -139.27496 | 39894 ft | 463 kts | 324° |
| 2026-04-15 14:09 | 61.37495 | -139.35061 | 39906 ft | 463 kts | 324° |
| 2026-04-15 14:10 | 61.42793 | -139.42699 | 39933 ft | 463 kts | 324° |
| 2026-04-15 14:10 | 61.48096 | -139.50375 | 39961 ft | 464 kts | 323° |
| 2026-04-15 14:11 | 61.53400 | -139.58086 | 39998 ft | 464 kts | 323° |
| 2026-04-15 14:11 | 61.58699 | -139.65822 | 40033 ft | 464 kts | 323° |
| 2026-04-15 14:12 | 61.63995 | -139.73587 | 40035 ft | 464 kts | 323° |
| 2026-04-15 14:12 | 61.69290 | -139.81384 | 40039 ft | 465 kts | 323° |
| 2026-04-15 14:13 | 61.74585 | -139.89215 | 40043 ft | 465 kts | 323° |
| 2026-04-15 14:13 | 61.79875 | -139.97071 | 40044 ft | 465 kts | 323° |
| 2026-04-15 14:14 | 61.85163 | -140.04959 | 40044 ft | 465 kts | 323° |
| 2026-04-15 14:14 | 61.90448 | -140.12874 | 40048 ft | 465 kts | 323° |
| 2026-04-15 14:15 | 61.95732 | -140.20824 | 40048 ft | 466 kts | 323° |
| 2026-04-15 14:15 | 62.01018 | -140.28811 | 40049 ft | 466 kts | 323° |
| 2026-04-15 14:16 | 62.06301 | -140.36828 | 40053 ft | 466 kts | 323° |
| 2026-04-15 14:16 | 62.11580 | -140.44874 | 40048 ft | 466 kts | 323° |
| 2026-04-15 14:17 | 62.16859 | -140.52956 | 40048 ft | 467 kts | 323° |
| 2026-04-15 14:17 | 62.22099 | -140.61012 | 40049 ft | 467 kts | 323° |
| 2026-04-15 14:18 | 62.27371 | -140.69153 | 40049 ft | 467 kts | 322° |
| 2026-04-15 14:18 | 62.32638 | -140.77324 | 40046 ft | 467 kts | 322° |
| 2026-04-15 14:19 | 62.37908 | -140.85535 | 40048 ft | 468 kts | 322° |
| 2026-04-15 14:19 | 62.43176 | -140.93779 | 40048 ft | 468 kts | 322° |
| 2026-04-15 14:20 | 62.48434 | -141.02074 | 40049 ft | 468 kts | 321° |
| 2026-04-15 14:20 | 62.53395 | -141.11161 | 40051 ft | 467 kts | 317° |
| 2026-04-15 14:21 | 62.58205 | -141.20628 | 40058 ft | 467 kts | 316° |
| 2026-04-15 14:21 | 62.63054 | -141.30049 | 40057 ft | 468 kts | 317° |
| 2026-04-15 14:22 | 62.67935 | -141.39401 | 40061 ft | 468 kts | 317° |
| 2026-04-15 14:22 | 62.72825 | -141.48756 | 40061 ft | 468 kts | 317° |
| 2026-04-15 14:23 | 62.77709 | -141.58143 | 40062 ft | 468 kts | 317° |
| 2026-04-15 14:23 | 62.82589 | -141.67573 | 40060 ft | 468 kts | 317° |
| 2026-04-15 14:24 | 62.87463 | -141.77042 | 40051 ft | 468 kts | 317° |
| 2026-04-15 14:24 | 62.92328 | -141.86535 | 40050 ft | 469 kts | 317° |
| 2026-04-15 14:25 | 62.96696 | -141.97086 | 40047 ft | 467 kts | 307° |
| 2026-04-15 14:25 | 63.00625 | -142.08359 | 40042 ft | 467 kts | 307° |
| 2026-04-15 14:26 | 63.04551 | -142.19769 | 40039 ft | 468 kts | 306° |
| 2026-04-15 14:26 | 63.08467 | -142.31229 | 40042 ft | 468 kts | 306° |
| 2026-04-15 14:27 | 63.12375 | -142.42732 | 40040 ft | 468 kts | 306° |
| 2026-04-15 14:27 | 63.16270 | -142.54254 | 39981 ft | 468 kts | 306° |
| 2026-04-15 14:28 | 63.20159 | -142.65817 | 39948 ft | 468 kts | 306° |
| 2026-04-15 14:28 | 63.24038 | -142.77411 | 39918 ft | 468 kts | 306° |
| 2026-04-15 14:29 | 63.27908 | -142.89037 | 39905 ft | 468 kts | 306° |
| 2026-04-15 14:29 | 63.31770 | -143.00699 | 39905 ft | 468 kts | 306° |
| 2026-04-15 14:30 | 63.35621 | -143.12389 | 39905 ft | 468 kts | 306° |
| 2026-04-15 14:30 | 63.39467 | -143.24122 | 39931 ft | 468 kts | 305° |
| 2026-04-15 14:31 | 63.43278 | -143.35810 | 39956 ft | 469 kts | 305° |
| 2026-04-15 14:31 | 63.47105 | -143.47608 | 39988 ft | 469 kts | 305° |
| 2026-04-15 14:32 | 63.50920 | -143.59431 | 40015 ft | 469 kts | 305° |
| 2026-04-15 14:32 | 63.54731 | -143.71301 | 40022 ft | 469 kts | 305° |
| 2026-04-15 14:33 | 63.58530 | -143.83199 | 40018 ft | 469 kts | 305° |
| 2026-04-15 14:33 | 63.62321 | -143.95139 | 40017 ft | 469 kts | 305° |
| 2026-04-15 14:34 | 63.66107 | -144.07117 | 40015 ft | 469 kts | 304° |
| 2026-04-15 14:34 | 63.69882 | -144.19127 | 40009 ft | 470 kts | 304° |
| 2026-04-15 14:35 | 63.73645 | -144.31162 | 40012 ft | 470 kts | 304° |
| 2026-04-15 14:35 | 63.77407 | -144.43261 | 40007 ft | 470 kts | 304° |
| 2026-04-15 14:36 | 63.81155 | -144.55379 | 40003 ft | 470 kts | 304° |
| 2026-04-15 14:36 | 63.84897 | -144.67544 | 39999 ft | 471 kts | 304° |
| 2026-04-15 14:37 | 63.88629 | -144.79739 | 39997 ft | 471 kts | 304° |
| 2026-04-15 14:37 | 63.92354 | -144.91980 | 39995 ft | 471 kts | 304° |
| 2026-04-15 14:38 | 63.96043 | -145.04165 | 39892 ft | 470 kts | 304° |
| 2026-04-15 14:38 | 63.97891 | -145.10297 | 39662 ft | 468 kts | 304° |
| 2026-04-15 14:38 | 63.99718 | -145.16369 | 39244 ft | 464 kts | 303° |
| 2026-04-15 14:38 | 64.01541 | -145.22451 | 38606 ft | 465 kts | 303° |
| 2026-04-15 14:39 | 64.03369 | -145.28564 | 37826 ft | 466 kts | 303° |
| 2026-04-15 14:39 | 64.05193 | -145.34682 | 37129 ft | 466 kts | 303° |
| 2026-04-15 14:39 | 64.07013 | -145.40800 | 36437 ft | 465 kts | 303° |
| 2026-04-15 14:39 | 64.08829 | -145.46920 | 35730 ft | 465 kts | 303° |
| 2026-04-15 14:40 | 64.10643 | -145.53054 | 35002 ft | 465 kts | 302° |
| 2026-04-15 14:40 | 64.12451 | -145.59180 | 34264 ft | 466 kts | 302° |
| 2026-04-15 14:40 | 64.14264 | -145.65344 | 33396 ft | 466 kts | 302° |
| 2026-04-15 14:40 | 64.16074 | -145.71515 | 32450 ft | 467 kts | 302° |
| 2026-04-15 14:41 | 64.17881 | -145.77691 | 31560 ft | 466 kts | 302° |
| 2026-04-15 14:41 | 64.19685 | -145.83873 | 30664 ft | 466 kts | 302° |
| 2026-04-15 14:41 | 64.21486 | -145.90062 | 29669 ft | 467 kts | 301° |
| 2026-04-15 14:41 | 64.23280 | -145.96247 | 28858 ft | 461 kts | 301° |
| 2026-04-15 14:42 | 64.25043 | -146.02336 | 28175 ft | 454 kts | 301° |
| 2026-04-15 14:42 | 64.26779 | -146.08350 | 27507 ft | 447 kts | 301° |
| 2026-04-15 14:42 | 64.28485 | -146.14277 | 26864 ft | 441 kts | 301° |
| 2026-04-15 14:42 | 64.30165 | -146.20129 | 26196 ft | 435 kts | 301° |
| 2026-04-15 14:43 | 64.31820 | -146.25913 | 25634 ft | 428 kts | 301° |
| 2026-04-15 14:43 | 64.33446 | -146.31610 | 25007 ft | 423 kts | 301° |
| 2026-04-15 14:43 | 64.35054 | -146.37254 | 24374 ft | 418 kts | 301° |
| 2026-04-15 14:43 | 64.36640 | -146.42836 | 23740 ft | 413 kts | 301° |
| 2026-04-15 14:44 | 64.38207 | -146.48366 | 23037 ft | 409 kts | 301° |
| 2026-04-15 14:44 | 64.39745 | -146.53805 | 22402 ft | 402 kts | 301° |
| 2026-04-15 14:44 | 64.41261 | -146.59183 | 21780 ft | 395 kts | 301° |
| 2026-04-15 14:44 | 64.42731 | -146.64404 | 21184 ft | 389 kts | 301° |
| 2026-04-15 14:45 | 64.44211 | -146.69680 | 20560 ft | 383 kts | 301° |
| 2026-04-15 14:45 | 64.45652 | -146.74829 | 19954 ft | 378 kts | 300° |
| 2026-04-15 14:45 | 64.47073 | -146.79916 | 19351 ft | 374 kts | 300° |
| 2026-04-15 14:45 | 64.48457 | -146.84883 | 18741 ft | 370 kts | 301° |
| 2026-04-15 14:46 | 64.49846 | -146.89876 | 18116 ft | 367 kts | 300° |
| 2026-04-15 14:46 | 64.51224 | -146.94841 | 17472 ft | 363 kts | 300° |
| 2026-04-15 14:46 | 64.52581 | -146.99743 | 16891 ft | 358 kts | 300° |
| 2026-04-15 14:46 | 64.53920 | -147.04589 | 16308 ft | 355 kts | 300° |
| 2026-04-15 14:47 | 64.55008 | -147.08536 | 15812 ft | 354 kts | 300° |
| 2026-04-15 14:47 | 64.56358 | -147.13443 | 15415 ft | 346 kts | 300° |
| 2026-04-15 14:47 | 64.57626 | -147.18050 | 15293 ft | 331 kts | 300° |
| 2026-04-15 14:47 | 64.58838 | -147.22468 | 15178 ft | 316 kts | 300° |
| 2026-04-15 14:48 | 64.59996 | -147.26695 | 15050 ft | 303 kts | 300° |
| 2026-04-15 14:48 | 64.61106 | -147.30760 | 14944 ft | 291 kts | 300° |
| 2026-04-15 14:48 | 64.62170 | -147.34665 | 14829 ft | 280 kts | 300° |
| 2026-04-15 14:48 | 64.63191 | -147.38420 | 14714 ft | 269 kts | 300° |
| 2026-04-15 14:49 | 64.64075 | -147.42156 | 14591 ft | 257 kts | 290° |
| 2026-04-15 14:49 | 64.64506 | -147.46094 | 14481 ft | 246 kts | 276° |
| 2026-04-15 14:49 | 64.64675 | -147.49983 | 14363 ft | 237 kts | 274° |
| 2026-04-15 14:49 | 64.64805 | -147.53737 | 14245 ft | 228 kts | 273° |
| 2026-04-15 14:50 | 64.64930 | -147.57350 | 14126 ft | 219 kts | 273° |
| 2026-04-15 14:50 | 64.65053 | -147.60844 | 13996 ft | 214 kts | 273° |
| 2026-04-15 14:50 | 64.65098 | -147.64301 | 13887 ft | 213 kts | 264° |
| 2026-04-15 14:50 | 64.64767 | -147.67666 | 13717 ft | 213 kts | 251° |
| 2026-04-15 14:51 | 64.64241 | -147.70902 | 13469 ft | 213 kts | 249° |
| 2026-04-15 14:51 | 64.63692 | -147.74109 | 13224 ft | 213 kts | 249° |
| 2026-04-15 14:51 | 64.63145 | -147.77323 | 12974 ft | 213 kts | 249° |
| 2026-04-15 14:51 | 64.62603 | -147.80526 | 12731 ft | 212 kts | 249° |
| 2026-04-15 14:52 | 64.62064 | -147.83728 | 12486 ft | 212 kts | 249° |
| 2026-04-15 14:52 | 64.61526 | -147.86928 | 12233 ft | 211 kts | 249° |
| 2026-04-15 14:52 | 64.61171 | -147.89038 | 12076 ft | 212 kts | 249° |
| 2026-04-15 14:52 | 64.60546 | -147.92748 | 11789 ft | 211 kts | 248° |
| 2026-04-15 14:53 | 64.59957 | -147.95865 | 11546 ft | 211 kts | 240° |
| 2026-04-15 14:53 | 64.59382 | -147.97684 | 11389 ft | 211 kts | 226° |
| 2026-04-15 14:53 | 64.58277 | -147.99908 | 11151 ft | 210 kts | 218° |
| 2026-04-15 14:53 | 64.56729 | -148.02631 | 10579 ft | 213 kts | 218° |
| 2026-04-15 14:54 | 64.55525 | -148.04744 | 9879 ft | 220 kts | 217° |
| 2026-04-15 14:54 | 64.54304 | -148.06897 | 9246 ft | 219 kts | 217° |
| 2026-04-15 14:54 | 64.53493 | -148.08331 | 8889 ft | 214 kts | 217° |
| 2026-04-15 14:54 | 64.52328 | -148.10399 | 8402 ft | 207 kts | 217° |
| 2026-04-15 14:55 | 64.51397 | -148.12722 | 8225 ft | 188 kts | 239° |
| 2026-04-15 14:55 | 64.51051 | -148.15495 | 8139 ft | 178 kts | 264° |
| 2026-04-15 14:55 | 64.51231 | -148.18283 | 7981 ft | 172 kts | 288° |
| 2026-04-15 14:55 | 64.51888 | -148.20773 | 7913 ft | 197 kts | 308° |
| 2026-04-15 14:56 | 64.52958 | -148.22962 | 7616 ft | 210 kts | 326° |
| 2026-04-15 14:56 | 64.54314 | -148.24333 | 7331 ft | 220 kts | 343° |
| 2026-04-15 14:56 | 64.55858 | -148.24847 | 7160 ft | 228 kts | 358° |
| 2026-04-15 14:56 | 64.57446 | -148.24813 | 6924 ft | 228 kts | 1° |
| 2026-04-15 14:57 | 64.59026 | -148.24713 | 6553 ft | 226 kts | 2° |
| 2026-04-15 14:57 | 64.60594 | -148.24520 | 6174 ft | 224 kts | 8° |
| 2026-04-15 14:57 | 64.62008 | -148.23014 | 5925 ft | 224 kts | 41° |
| 2026-04-15 14:57 | 64.63007 | -148.20291 | 5734 ft | 217 kts | 54° |
| 2026-04-15 14:58 | 64.63988 | -148.17706 | 5434 ft | 212 kts | 47° |
| 2026-04-15 14:58 | 64.65158 | -148.15565 | 4973 ft | 216 kts | 33° |
| 2026-04-15 14:58 | 64.66462 | -148.13767 | 4578 ft | 216 kts | 33° |
| 2026-04-15 14:58 | 64.67686 | -148.11846 | 4309 ft | 209 kts | 38° |
| 2026-04-15 14:59 | 64.68839 | -148.09848 | 4014 ft | 204 kts | 41° |
| 2026-04-15 14:59 | 64.69927 | -148.07775 | 3715 ft | 200 kts | 41° |
| 2026-04-15 14:59 | 64.70999 | -148.05749 | 3355 ft | 195 kts | 41° |
| 2026-04-15 14:59 | 64.72023 | -148.03829 | 3050 ft | 182 kts | 41° |
| 2026-04-15 15:00 | 64.72970 | -148.02033 | 2775 ft | 170 kts | 41° |
| 2026-04-15 15:00 | 64.73885 | -148.00355 | 2463 ft | 164 kts | 40° |
| 2026-04-15 15:00 | 64.74787 | -147.98737 | 2057 ft | 162 kts | 41° |
| 2026-04-15 15:00 | 64.75630 | -147.97104 | 1806 ft | 153 kts | 41° |
| 2026-04-15 15:01 | 64.76448 | -147.95597 | 1513 ft | 146 kts | 40° |
| 2026-04-15 15:01 | 64.77235 | -147.94142 | 1303 ft | 143 kts | 38° |
| 2026-04-15 15:01 | 64.78017 | -147.92741 | 1076 ft | 141 kts | 38° |
| 2026-04-15 15:01 | 64.78787 | -147.91318 | 891 ft | 141 kts | 39° |
| 2026-04-15 15:02 | 64.79567 | -147.89881 | 713 ft | 143 kts | 39° |
| 2026-04-15 15:02 | 64.80344 | -147.88465 | 500 ft | 142 kts | 39° |
| 2026-04-15 15:02 | 64.81075 | -147.87113 | 448 ft | 122 kts | 37° |
| 2026-04-15 15:02 | 64.81583 | -147.86170 | 448 ft | 67 kts | 38° |
| 2026-04-15 15:03 | 64.81795 | -147.85780 | 429 ft | 17 kts | 38° |
| 2026-04-15 15:03 | 64.81893 | -147.85623 | 448 ft | 16 kts | 15° |
| 2026-04-15 15:03 | 64.81944 | -147.85686 | 448 ft | 7 kts | 308° |
| 2026-04-15 15:03 | 64.81953 | -147.85768 | 449 ft | 6 kts | 271° |
| 2026-04-15 15:04 | 64.81927 | -147.85877 | 449 ft | 9 kts | 212° |
| 2026-04-15 15:04 | 64.81850 | -147.86002 | 449 ft | 17 kts | 216° |
| 2026-04-15 15:04 | 64.81792 | -147.86221 | 449 ft | 16 kts | 261° |
| 2026-04-15 15:04 | 64.81825 | -147.86473 | 449 ft | 7 kts | 298° |
| 2026-04-15 15:05 | 64.81825 | -147.86475 | 449 ft | 0 kts | 298° |